createdAt,value
2022-08-16T00:01:33.972Z,19.30
2022-08-16T00:04:05.071Z,14.70
2022-08-16T00:06:32.961Z,19.70
2022-08-16T00:09:00.081Z,18.70
2022-08-16T00:11:27.189Z,24.10
2022-08-16T00:13:55.715Z,21.20
2022-08-16T00:17:06.334Z,26.70
2022-08-16T00:19:28.366Z,23.20
2022-08-16T00:22:13.586Z,30.10
2022-08-16T00:24:44.579Z,28.80
2022-08-16T00:27:12.085Z,28.90
2022-08-16T00:29:39.186Z,30.60
2022-08-16T00:32:07.515Z,29.00
2022-08-16T00:34:44.551Z,36.30
2022-08-16T00:37:24.511Z,30.50
2022-08-16T00:39:58.532Z,43.60
2022-08-16T00:42:30.734Z,48.20
2022-08-16T00:45:28.701Z,41.90
2022-08-16T00:47:56.377Z,43.80
2022-08-16T00:50:36.346Z,50.00
2022-08-16T00:53:06.451Z,49.20
2022-08-16T00:55:38.012Z,46.50
2022-08-16T00:58:13.064Z,51.00
2022-08-16T01:00:53.978Z,51.00
2022-08-16T01:03:30.085Z,52.50
2022-08-16T01:05:59.409Z,59.40
2022-08-16T01:08:35.153Z,57.10
2022-08-16T01:11:05.456Z,61.10
2022-08-16T01:13:36.591Z,64.00
2022-08-16T01:16:12.784Z,59.70
2022-08-16T01:18:52.988Z,63.90
2022-08-16T01:21:45.347Z,59.30
2022-08-16T01:24:45.294Z,67.00
2022-08-16T01:27:21.724Z,63.70
2022-08-16T01:30:01.020Z,71.40
2022-08-16T01:32:34.183Z,71.70
2022-08-16T01:35:27.892Z,67.80
2022-08-16T01:37:57.097Z,69.10
2022-08-16T01:40:30.675Z,70.50
2022-08-16T01:42:58.244Z,73.40
2022-08-16T01:45:40.770Z,70.50
2022-08-16T01:48:19.450Z,73.20
2022-08-16T01:51:08.857Z,76.30
2022-08-16T01:53:36.805Z,74.80
2022-08-16T01:56:23.756Z,73.90
2022-08-16T01:58:55.964Z,73.00
2022-08-16T02:01:26.160Z,69.10
2022-08-16T02:03:58.523Z,70.20
2022-08-16T02:06:38.582Z,73.30
2022-08-16T02:09:11.750Z,73.40
2022-08-16T02:11:48.290Z,73.30
2022-08-16T02:14:26.688Z,74.50
2022-08-16T02:16:58.524Z,77.00
2022-08-16T02:19:59.114Z,76.00
2022-08-16T02:22:33.518Z,77.10
2022-08-16T02:25:09.802Z,81.20
2022-08-16T02:27:40.865Z,82.00
2022-08-16T02:30:37.058Z,78.40
2022-08-16T02:33:05.410Z,79.80
2022-08-16T02:35:54.419Z,80.10
2022-08-16T02:38:24.008Z,84.90
2022-08-16T02:40:51.996Z,87.20
2022-08-16T02:43:26.753Z,86.50
2022-08-16T02:45:58.391Z,90.20
2022-08-16T02:48:28.423Z,87.10
2022-08-16T02:51:10.183Z,90.50
2022-08-16T02:53:43.556Z,90.30
2022-08-16T02:56:14.803Z,91.00
2022-08-16T02:58:45.251Z,92.80
2022-08-16T03:01:25.069Z,91.80
2022-08-16T03:04:28.963Z,92.10
2022-08-16T03:06:56.682Z,91.70
2022-08-16T03:09:38.310Z,93.80
2022-08-16T03:12:06.718Z,92.20
2022-08-16T03:14:34.760Z,92.60
2022-08-16T03:17:04.592Z,92.40
2022-08-16T03:19:42.224Z,94.00
2022-08-16T03:22:19.471Z,94.30
2022-08-16T03:25:00.944Z,95.30
2022-08-16T03:27:32.364Z,94.50
2022-08-16T03:30:16.740Z,93.60
2022-08-16T03:32:53.128Z,94.20
2022-08-16T03:35:32.569Z,94.60
2022-08-16T03:38:34.507Z,95.60
2022-08-16T03:40:56.280Z,96.00
2022-08-16T03:43:51.603Z,96.60
2022-08-16T03:46:44.998Z,95.70
2022-08-16T03:49:04.857Z,94.20
2022-08-16T03:51:31.886Z,95.30
2022-08-16T03:54:12.277Z,95.90
2022-08-16T03:56:57.035Z,95.00
2022-08-16T03:59:29.815Z,95.90
2022-08-16T04:02:00.946Z,94.50
2022-08-16T04:04:32.502Z,93.60
2022-08-16T04:07:04.094Z,93.40
2022-08-16T04:09:35.613Z,92.40
2022-08-16T04:12:10.458Z,91.50
2022-08-16T04:14:46.804Z,90.90
2022-08-16T04:17:17.129Z,88.00
2022-08-16T04:19:45.637Z,83.00
2022-08-16T04:22:17.121Z,83.80
2022-08-16T04:24:54.044Z,81.90
2022-08-16T04:27:24.571Z,77.70
2022-08-16T04:30:02.776Z,76.40
2022-08-16T04:32:33.737Z,75.80
2022-08-16T04:35:12.337Z,64.70
2022-08-16T04:37:45.039Z,52.70
2022-08-16T04:40:21.821Z,47.70
2022-08-16T04:42:54.842Z,39.80
2022-08-16T04:45:35.275Z,35.40
2022-08-16T04:48:07.266Z,35.50
2022-08-16T04:50:47.799Z,13.40
2022-08-16T04:53:19.195Z,22.90
2022-08-16T04:55:53.281Z,18.80
2022-08-16T04:58:38.426Z,7.20
2022-08-16T05:01:11.302Z,1.00
2022-08-16T05:03:41.784Z,1.00
2022-08-16T05:06:45.348Z,1.00
2022-08-16T05:12:40.693Z,99.90
2022-08-16T05:15:42.740Z,1.00
2022-08-16T05:18:15.823Z,92.80
2022-08-16T05:21:01.256Z,99.90
2022-08-16T05:23:36.965Z,99.90
2022-08-16T05:26:04.460Z,99.90
2022-08-16T05:28:37.536Z,37.30
2022-08-16T05:31:07.058Z,99.90
2022-08-16T05:33:34.181Z,99.90
2022-08-16T05:36:03.913Z,99.90
2022-08-16T05:38:42.534Z,99.90
2022-08-16T05:41:14.220Z,99.90
2022-08-16T05:43:47.640Z,3.90
2022-08-16T05:46:30.288Z,99.90
2022-08-16T05:49:08.692Z,81.60
2022-08-16T05:51:39.938Z,99.90
2022-08-16T05:54:11.399Z,99.90
2022-08-16T05:56:41.812Z,99.90
2022-08-16T05:59:11.122Z,1.00
2022-08-16T06:01:41.345Z,99.90
2022-08-16T06:04:13.118Z,44.30
2022-08-16T06:06:58.140Z,99.90
2022-08-16T06:09:43.034Z,99.90
2022-08-16T06:12:27.373Z,99.90
2022-08-16T06:14:59.955Z,1.00
2022-08-16T06:17:41.700Z,14.70
2022-08-16T06:20:35.406Z,92.90
2022-08-16T06:23:17.104Z,99.90
2022-08-16T06:26:07.468Z,99.90
2022-08-16T06:28:38.185Z,1.00
2022-08-16T06:31:16.592Z,1.00
2022-08-16T06:33:49.043Z,38.60
2022-08-16T06:36:21.891Z,99.90
2022-08-16T06:38:59.861Z,99.90
2022-08-16T06:41:53.121Z,1.60
2022-08-16T06:44:53.370Z,1.00
2022-08-16T06:47:52.462Z,17.20
2022-08-16T06:50:29.146Z,99.90
2022-08-16T06:53:08.990Z,99.90
2022-08-16T06:55:43.278Z,99.90
2022-08-16T06:58:21.904Z,1.00
2022-08-16T07:00:54.300Z,99.90
2022-08-16T07:03:27.412Z,99.90
2022-08-16T07:05:57.733Z,99.90
2022-08-16T07:08:35.195Z,1.00
2022-08-16T07:11:05.278Z,42.90
2022-08-16T07:14:00.694Z,99.90
2022-08-16T07:16:27.846Z,99.90
2022-08-16T07:19:01.295Z,99.90
2022-08-16T07:21:46.404Z,99.90
2022-08-16T07:24:30.284Z,99.90
2022-08-16T07:27:04.388Z,99.90
2022-08-16T07:29:36.212Z,99.90
2022-08-16T07:32:09.222Z,1.00
2022-08-16T07:34:37.609Z,99.90
2022-08-16T07:37:16.383Z,99.90
2022-08-16T07:40:11.709Z,99.90
2022-08-16T07:42:43.835Z,99.90
2022-08-16T07:45:13.236Z,99.90
2022-08-16T07:47:47.897Z,99.90
2022-08-16T07:50:56.240Z,99.90
2022-08-16T07:53:08.630Z,34.20
2022-08-16T07:55:45.529Z,1.00
2022-08-16T07:58:18.298Z,99.90
2022-08-16T08:01:10.058Z,99.90
2022-08-16T08:03:39.177Z,99.90
2022-08-16T08:06:10.751Z,99.90
2022-08-16T08:08:50.340Z,99.90
2022-08-16T08:11:28.372Z,99.90
2022-08-16T08:14:03.850Z,99.90
2022-08-16T08:16:38.541Z,99.90
2022-08-16T08:19:18.544Z,99.90
2022-08-16T08:22:00.877Z,99.90
2022-08-16T08:24:44.131Z,99.90
2022-08-16T08:27:12.633Z,99.90
2022-08-16T08:30:52.051Z,99.90
2022-08-16T08:32:59.376Z,99.90
2022-08-16T08:35:29.571Z,99.90
2022-08-16T08:37:59.441Z,99.90
2022-08-16T08:40:29.750Z,99.90
2022-08-16T08:43:00.639Z,99.90
2022-08-16T08:45:46.855Z,99.90
2022-08-16T08:48:32.792Z,99.90
2022-08-16T08:51:08.913Z,99.90
2022-08-16T08:53:46.821Z,99.90
2022-08-16T08:56:30.008Z,99.90
2022-08-16T08:59:13.540Z,99.90
2022-08-16T09:01:58.116Z,99.90
2022-08-16T09:04:34.685Z,99.90
2022-08-16T09:07:07.608Z,99.90
2022-08-16T09:09:41.278Z,99.90
2022-08-16T09:12:35.379Z,99.90
2022-08-16T09:15:21.525Z,99.90
2022-08-16T09:17:53.656Z,99.90
2022-08-16T09:20:27.026Z,99.90
2022-08-16T09:22:55.860Z,99.90
2022-08-16T09:25:34.457Z,99.90
2022-08-16T09:28:09.527Z,99.90
2022-08-16T09:30:50.007Z,99.90
2022-08-16T09:33:18.395Z,99.90
2022-08-16T09:35:53.200Z,99.90
2022-08-16T09:38:32.152Z,99.90
2022-08-16T09:41:01.533Z,99.90
2022-08-16T09:43:58.080Z,99.90
2022-08-16T09:46:45.991Z,99.90
2022-08-16T09:49:04.692Z,99.90
2022-08-16T09:51:37.192Z,99.90
2022-08-16T09:54:06.179Z,99.90
2022-08-16T09:56:52.601Z,99.90
2022-08-16T09:59:23.363Z,99.90
2022-08-16T10:01:51.782Z,99.90
2022-08-16T10:04:33.450Z,99.90
2022-08-16T10:07:14.793Z,99.90
2022-08-16T10:09:53.633Z,99.90
2022-08-16T10:12:56.887Z,99.90
2022-08-16T10:15:30.068Z,99.90
2022-08-16T10:18:00.969Z,99.90
2022-08-16T10:20:35.315Z,99.90
2022-08-16T10:23:17.067Z,99.90
2022-08-16T10:27:16.172Z,99.90
2022-08-16T10:28:39.864Z,99.90
2022-08-16T10:31:16.769Z,99.90
2022-08-16T10:33:46.648Z,99.90
2022-08-16T10:36:38.816Z,99.90
2022-08-16T10:39:04.530Z,99.90
2022-08-16T10:41:33.175Z,99.90
2022-08-16T10:44:01.143Z,99.90
2022-08-16T10:46:33.845Z,99.90
2022-08-16T10:49:11.501Z,99.90
2022-08-16T10:52:02.954Z,99.90
2022-08-16T10:54:29.980Z,99.90
2022-08-16T10:56:59.575Z,99.90
2022-08-16T10:59:32.877Z,99.90
2022-08-16T11:02:59.478Z,99.90
2022-08-16T11:05:10.703Z,99.90
2022-08-16T11:07:45.112Z,99.90
2022-08-16T11:16:26.509Z,99.90
2022-08-16T11:19:06.515Z,99.90
2022-08-16T11:22:23.085Z,99.90
2022-08-16T11:24:40.103Z,99.90
2022-08-16T11:27:19.868Z,99.90
2022-08-16T11:29:51.964Z,99.90
2022-08-16T11:32:29.900Z,99.90
2022-08-16T11:35:10.498Z,99.90
2022-08-16T11:40:32.717Z,99.90
2022-08-16T11:43:01.601Z,99.90
2022-08-16T11:45:33.852Z,99.90
2022-08-16T11:48:03.848Z,99.90
2022-08-16T11:50:34.023Z,99.90
2022-08-16T11:53:04.038Z,99.90
2022-08-16T11:55:32.631Z,99.90
2022-08-16T11:58:00.921Z,99.90
2022-08-16T12:00:33.628Z,99.90
2022-08-16T12:03:18.026Z,99.90
2022-08-16T12:05:46.668Z,99.90
2022-08-16T12:08:20.144Z,99.90
2022-08-16T12:10:53.738Z,99.90
2022-08-16T12:13:20.813Z,99.90
2022-08-16T12:15:48.475Z,99.90
2022-08-16T12:18:20.946Z,99.90
2022-08-16T12:20:49.013Z,99.90
2022-08-16T12:23:17.413Z,99.90
2022-08-16T12:25:44.990Z,99.90
2022-08-16T12:28:12.762Z,99.90
2022-08-16T12:30:43.910Z,99.90
2022-08-16T12:33:16.316Z,99.90
2022-08-16T12:35:52.854Z,99.90
2022-08-16T12:38:40.926Z,99.90
2022-08-16T12:41:08.264Z,99.90
2022-08-16T12:43:36.434Z,99.90
2022-08-16T12:46:10.425Z,99.90
2022-08-16T12:48:56.235Z,99.90
2022-08-16T12:51:58.435Z,99.90
2022-08-16T12:54:21.877Z,99.90
2022-08-16T12:56:50.368Z,99.90
2022-08-16T12:59:20.233Z,99.90
2022-08-16T13:01:50.582Z,99.90
2022-08-16T13:04:24.575Z,99.90
2022-08-16T13:06:53.298Z,99.90
2022-08-16T13:09:26.875Z,99.90
2022-08-16T13:12:07.385Z,99.90
2022-08-16T13:14:41.066Z,99.90
2022-08-16T13:17:18.929Z,99.90
2022-08-16T13:20:08.104Z,99.90
2022-08-16T13:25:18.890Z,99.90
2022-08-16T13:28:01.452Z,99.90
2022-08-16T13:30:57.387Z,99.90
2022-08-16T13:33:31.079Z,99.90
2022-08-16T13:36:00.758Z,99.90
2022-08-16T13:38:37.210Z,99.90
2022-08-16T13:41:10.023Z,99.90
2022-08-16T13:43:39.735Z,99.90
2022-08-16T13:46:07.245Z,99.90
2022-08-16T13:48:37.156Z,99.90
2022-08-16T13:51:17.138Z,99.90
2022-08-16T13:53:59.109Z,99.90
2022-08-16T13:56:37.417Z,99.90
2022-08-16T13:59:14.312Z,99.90
2022-08-16T14:01:55.063Z,99.90
2022-08-16T14:04:26.377Z,99.90
2022-08-16T14:06:58.487Z,99.90
2022-08-16T14:09:28.186Z,99.90
2022-08-16T14:11:57.559Z,99.90
2022-08-16T14:14:29.159Z,99.90
2022-08-16T14:16:58.434Z,99.90
2022-08-16T14:19:27.964Z,99.90
2022-08-16T14:22:14.354Z,99.90
2022-08-16T14:24:45.346Z,99.90
2022-08-16T14:27:21.311Z,99.90
2022-08-16T14:29:51.208Z,99.90
2022-08-16T14:32:27.206Z,99.90
2022-08-16T14:35:04.138Z,99.90
2022-08-16T14:37:31.961Z,99.90
2022-08-16T14:39:59.844Z,99.90
2022-08-16T14:42:28.962Z,99.90
2022-08-16T14:45:00.430Z,99.90
2022-08-16T14:47:34.129Z,99.90
2022-08-16T14:50:03.291Z,99.90
2022-08-16T14:55:21.087Z,99.90
2022-08-16T14:57:48.154Z,99.90
2022-08-16T15:00:19.924Z,99.90
2022-08-16T15:02:54.202Z,99.90
2022-08-16T15:05:22.960Z,99.90
2022-08-16T15:07:51.550Z,99.90
2022-08-16T15:10:29.250Z,99.90
2022-08-16T15:13:00.997Z,99.90
2022-08-16T15:15:29.681Z,99.90
2022-08-16T15:17:57.609Z,99.90
2022-08-16T15:20:29.463Z,99.90
2022-08-16T15:22:59.666Z,99.90
2022-08-16T15:25:41.049Z,99.90
2022-08-16T15:28:31.214Z,99.90
2022-08-16T15:31:04.705Z,99.90
2022-08-16T15:33:42.614Z,99.90
2022-08-16T15:36:18.010Z,99.90
2022-08-16T15:39:02.104Z,99.90
2022-08-16T15:41:38.863Z,99.90
2022-08-16T15:44:12.831Z,99.90
2022-08-16T15:46:54.797Z,99.90
2022-08-16T15:49:34.774Z,99.90
2022-08-16T15:52:11.232Z,99.90
2022-08-16T15:54:52.405Z,99.90
2022-08-16T15:57:26.846Z,99.90
2022-08-16T15:59:55.659Z,99.90
2022-08-16T16:02:29.771Z,99.90
2022-08-16T16:05:02.125Z,99.90
2022-08-16T16:07:32.143Z,99.90
2022-08-16T16:10:03.668Z,99.90
2022-08-16T16:12:51.237Z,99.90
2022-08-16T16:15:20.305Z,99.90
2022-08-16T16:17:52.455Z,99.90
2022-08-16T16:20:24.416Z,99.90
2022-08-16T16:22:59.742Z,99.90
2022-08-16T16:25:29.296Z,99.90
2022-08-16T16:27:59.712Z,99.90
2022-08-16T16:30:37.758Z,99.90
2022-08-16T16:33:20.679Z,99.90
2022-08-16T16:35:55.104Z,99.90
2022-08-16T16:38:30.882Z,99.90
2022-08-16T16:41:08.800Z,99.90
2022-08-16T16:43:40.872Z,1.00
2022-08-16T16:46:41.056Z,1.00
2022-08-16T16:48:56.733Z,50.30
2022-08-16T16:51:28.075Z,99.90
2022-08-16T16:53:57.064Z,99.90
2022-08-16T16:56:32.260Z,99.90
2022-08-16T16:59:08.665Z,99.90
2022-08-16T17:01:57.564Z,99.90
2022-08-16T17:04:32.730Z,99.90
2022-08-16T17:07:02.223Z,99.90
2022-08-16T17:09:29.738Z,99.90
2022-08-16T17:11:58.287Z,99.90
2022-08-16T17:14:33.036Z,99.90
2022-08-16T17:17:04.973Z,99.90
2022-08-16T17:19:32.698Z,1.00
2022-08-16T17:22:00.873Z,28.60
2022-08-16T17:24:39.488Z,99.90
2022-08-16T17:27:08.976Z,99.90
2022-08-16T17:29:42.709Z,99.90
2022-08-16T17:32:34.020Z,99.90
2022-08-16T17:35:17.833Z,99.90
2022-08-16T17:37:51.469Z,99.90
2022-08-16T17:40:47.014Z,99.90
2022-08-16T17:43:28.288Z,1.00
2022-08-16T17:45:56.072Z,1.00
2022-08-16T17:48:23.828Z,1.00
2022-08-16T17:50:54.457Z,99.90
2022-08-16T17:53:22.553Z,99.90
2022-08-16T17:55:50.644Z,99.90
2022-08-16T17:58:22.365Z,99.90
2022-08-16T18:00:52.611Z,12.10
2022-08-16T18:04:02.667Z,1.00
2022-08-16T18:06:16.780Z,38.40
2022-08-16T18:08:48.845Z,99.90
2022-08-16T18:11:18.925Z,99.90
2022-08-16T18:13:53.897Z,1.00
2022-08-16T18:16:20.910Z,99.90
2022-08-16T18:18:48.121Z,99.90
2022-08-16T18:21:34.086Z,99.90
2022-08-16T18:24:01.581Z,1.00
2022-08-16T18:26:29.704Z,99.90
2022-08-16T18:28:56.858Z,98.20
2022-08-16T18:31:25.169Z,30.00
2022-08-16T18:33:55.651Z,2.30
2022-08-16T18:36:24.866Z,23.70
2022-08-16T18:38:52.620Z,1.00
2022-08-16T18:41:22.536Z,65.70
2022-08-16T18:44:04.792Z,99.90
2022-08-16T18:46:50.781Z,99.90
2022-08-16T18:49:19.203Z,1.00
2022-08-16T18:51:46.513Z,99.90
2022-08-16T18:54:18.261Z,56.70
2022-08-16T18:56:55.191Z,99.90
2022-08-16T18:59:27.827Z,99.90
2022-08-16T19:02:00.004Z,1.00
2022-08-16T19:04:56.257Z,97.10
2022-08-16T19:07:19.629Z,99.90
2022-08-16T19:09:47.001Z,99.90
2022-08-16T19:12:16.007Z,81.30
2022-08-16T19:14:45.441Z,62.20
2022-08-16T19:17:12.959Z,99.90
2022-08-16T19:19:40.077Z,42.90
2022-08-16T19:22:07.133Z,99.90
2022-08-16T19:24:34.430Z,99.90
2022-08-16T19:27:01.613Z,99.90
2022-08-16T19:29:29.258Z,99.90
2022-08-16T19:31:56.572Z,99.90
2022-08-16T19:34:23.582Z,59.90
2022-08-16T19:36:50.611Z,1.00
2022-08-16T19:39:18.080Z,99.90
2022-08-16T19:41:53.732Z,99.90
2022-08-16T19:44:24.216Z,99.90
2022-08-16T19:46:51.600Z,1.00
2022-08-16T19:49:18.712Z,99.90
2022-08-16T19:51:46.971Z,1.00
2022-08-16T19:54:14.225Z,1.00
2022-08-16T19:56:41.213Z,99.90
2022-08-16T19:59:39.534Z,99.90
2022-08-16T20:01:55.929Z,99.90
2022-08-16T20:04:24.568Z,99.90
2022-08-16T20:06:53.168Z,99.90
2022-08-16T20:09:24.665Z,99.90
2022-08-16T20:11:53.784Z,99.90
2022-08-16T20:14:25.613Z,99.90
2022-08-16T20:16:55.840Z,99.90
2022-08-16T20:19:23.429Z,99.90
2022-08-16T20:21:50.905Z,99.90
2022-08-16T20:24:35.896Z,99.90
2022-08-16T20:27:07.339Z,99.90
2022-08-16T20:29:35.384Z,99.90
2022-08-16T20:32:06.529Z,99.90
2022-08-16T20:34:34.535Z,99.90
2022-08-16T20:37:01.869Z,1.00
2022-08-16T20:39:29.021Z,1.00
2022-08-16T20:41:56.449Z,1.00
2022-08-16T20:44:25.009Z,1.00
2022-08-16T20:46:52.878Z,1.00
2022-08-16T20:49:19.991Z,1.00
2022-08-16T20:51:51.685Z,1.00
2022-08-16T20:54:20.938Z,99.90
2022-08-16T20:56:48.434Z,99.90
2022-08-16T20:59:16.360Z,99.90
2022-08-16T21:01:46.589Z,99.90
2022-08-16T21:04:24.687Z,99.90
2022-08-16T21:06:53.941Z,99.90
2022-08-16T21:09:27.384Z,99.90
2022-08-16T21:11:57.549Z,99.90
2022-08-16T21:14:27.724Z,99.90
2022-08-16T21:16:55.948Z,99.90
2022-08-16T21:19:23.303Z,99.90
2022-08-16T21:21:50.971Z,99.90
2022-08-16T21:24:18.319Z,99.90
2022-08-16T21:26:55.685Z,99.90
2022-08-16T21:29:39.025Z,99.90
2022-08-16T21:32:17.762Z,99.90
2022-08-16T21:34:45.686Z,99.90
2022-08-16T21:37:15.697Z,99.90
2022-08-16T21:39:44.702Z,1.00
2022-08-16T21:42:15.169Z,1.00
2022-08-16T21:44:43.039Z,1.00
2022-08-16T21:47:10.411Z,1.00
2022-08-16T21:49:38.298Z,1.00
2022-08-16T21:52:07.286Z,1.00
2022-08-16T21:54:34.829Z,1.00
2022-08-16T21:57:02.501Z,1.00
2022-08-16T21:59:29.834Z,99.90
2022-08-16T22:01:57.026Z,1.00
2022-08-16T22:04:36.874Z,99.90
2022-08-16T22:07:06.353Z,1.00
2022-08-16T22:09:34.023Z,1.00
2022-08-16T22:12:01.345Z,1.00
2022-08-16T22:14:28.446Z,1.00
2022-08-16T22:16:56.501Z,1.00
2022-08-16T22:19:24.155Z,1.00
2022-08-16T22:21:51.867Z,1.00
2022-08-16T22:24:19.211Z,1.00
2022-08-16T22:26:46.219Z,1.00
2022-08-16T22:29:14.493Z,1.00
2022-08-16T22:31:43.508Z,1.00
2022-08-16T22:34:10.522Z,99.90
2022-08-16T22:36:38.916Z,99.90
2022-08-16T22:39:08.930Z,99.90
2022-08-16T22:41:37.602Z,99.90
2022-08-16T22:44:06.166Z,99.90
2022-08-16T22:46:36.368Z,99.90
2022-08-16T22:49:05.670Z,99.90
2022-08-16T22:51:33.056Z,99.90
2022-08-16T22:54:00.682Z,99.90
2022-08-16T22:56:47.722Z,99.90
2022-08-16T22:59:14.938Z,99.90
2022-08-16T23:01:42.131Z,99.90
2022-08-16T23:04:09.277Z,99.90
2022-08-16T23:06:36.493Z,99.90
2022-08-16T23:09:03.761Z,99.90
2022-08-16T23:11:30.816Z,1.00
2022-08-16T23:13:58.231Z,1.00
2022-08-16T23:16:33.239Z,10.70
2022-08-16T23:19:05.062Z,25.70
2022-08-16T23:21:32.385Z,24.20
2022-08-16T23:24:00.011Z,29.60
2022-08-16T23:26:44.438Z,35.10
2022-08-16T23:29:24.832Z,28.60
2022-08-16T23:32:09.341Z,24.10
2022-08-16T23:34:36.708Z,18.40
2022-08-16T23:37:04.116Z,12.60
2022-08-16T23:39:31.131Z,11.70
2022-08-16T23:41:58.297Z,4.80
2022-08-16T23:44:55.643Z,1.00
2022-08-16T23:47:12.667Z,1.00
2022-08-16T23:49:56.845Z,1.40
2022-08-16T23:52:48.815Z,10.00
2022-08-16T23:55:17.028Z,27.30
2022-08-16T23:57:46.147Z,36.50
